In Rescue
 
Open Full Screen Window  High Contrast Mode
August 09, 2020 6:55 PM CDT
Present Weather: Light Drizzle
Weather Information
Wind Direction
  ---
Wind Speed
  00 kt (0 mph)
Wind Gust
  00 kt (0 mph)
Altimeter
29.79 in
Visibility
10 SM
Temperature
18° C
64° F
Dewpoint
16° C
61° F
Humidity
88%
1hr Rain Fall
00.02 in.
24hr Rain Fall
00.28 in.
Sky Condition
Scattered @ 6,500 ft
VFR

METAR KVWU 092355Z AUTO 00000KT 10SM -DZ SCT065 18/16 A2979 RMK AO2 P0002

FAA Disclaimer: The data displayed is for advisory purposes only and is not to be used for flight planning or operations.